Time,TemperatureF,DewpointF,PressureIn,WindDirection,WindDirectionDegrees,WindSpeedMPH,WindSpeedGustMPH,Humidity,HourlyPrecipIn,Conditions,Clouds,dailyrainin,SoftwareType,DateUTC
2013-08-23 00:00:00,74.3,71.8,30.10,NNW,342,1.0,3.0,92,0.00,,---,0.00,VWS V14.01,2013-08-23 04:00:00,
2013-08-23 00:01:00,74.2,71.7,30.10,North,5,1.0,5.0,92,0.00,,---,0.00,VWS V14.01,2013-08-23 04:01:00,
2013-08-23 00:02:00,74.2,71.7,30.10,NNW,344,2.0,5.0,92,0.00,,---,0.00,VWS V14.01,2013-08-23 04:02:00,
2013-08-23 00:04:00,74.1,71.6,30.10,NNW,344,2.0,6.0,92,0.00,,---,0.00,VWS V14.01,2013-08-23 04:04:00,
2013-08-23 00:05:00,74.1,71.6,30.10,NNW,343,0.0,6.0,92,0.00,,---,0.00,VWS V14.01,2013-08-23 04:05:00,
2013-08-23 00:10:00,74.0,71.2,30.09,NNW,340,1.0,6.0,91,0.00,,---,0.00,VWS V14.01,2013-08-23 04:10:00,
2013-08-23 00:15:00,73.9,71.1,30.10,NNW,336,1.0,6.0,91,0.00,,---,0.00,VWS V14.01,2013-08-23 04:15:00,
2013-08-23 00:20:00,74.0,70.9,30.09,NNW,336,0.0,3.0,90,0.00,,---,0.00,VWS V14.01,2013-08-23 04:20:00,
2013-08-23 00:25:00,73.9,70.8,30.09,NNW,336,0.0,3.0,90,0.00,,---,0.00,VWS V14.01,2013-08-23 04:25:00,
2013-08-23 00:30:00,73.8,70.7,30.09,NNW,336,0.0,3.0,90,0.00,,---,0.00,VWS V14.01,2013-08-23 04:30:00,
2013-08-23 00:35:00,73.6,70.8,30.09,NNW,346,1.0,4.0,91,0.00,,---,0.00,VWS V14.01,2013-08-23 04:35:00,
2013-08-23 00:40:00,73.4,70.6,30.09,NNW,346,0.0,4.0,91,0.00,,---,0.00,VWS V14.01,2013-08-23 04:40:00,
2013-08-23 00:45:00,73.1,70.3,30.09,NNW,346,0.0,4.0,91,0.00,,---,0.00,VWS V14.01,2013-08-23 04:45:00,
2013-08-23 00:50:00,72.9,69.8,30.08,North,360,0.0,2.0,90,0.00,,---,0.00,VWS V14.01,2013-08-23 04:50:00,
2013-08-23 00:55:00,72.8,69.7,30.08,North,5,0.0,3.0,90,0.00,,---,0.00,VWS V14.01,2013-08-23 04:55:00,
2013-08-23 01:00:00,72.6,69.5,30.08,North,5,0.0,0.0,90,0.00,,---,0.00,VWS V14.01,2013-08-23 05:00:00,
2013-08-23 01:05:00,72.4,69.3,30.08,North,5,0.0,0.0,90,0.00,,---,0.00,VWS V14.01,2013-08-23 05:05:00,
2013-08-23 01:10:00,72.0,68.9,30.08,North,5,0.0,0.0,90,0.00,,---,0.00,VWS V14.01,2013-08-23 05:10:00,
2013-08-23 01:15:00,71.9,69.1,30.08,North,5,0.0,0.0,91,0.00,,---,0.00,VWS V14.01,2013-08-23 05:15:00,
2013-08-23 01:20:00,71.8,68.7,30.08,North,5,0.0,0.0,90,0.00,,---,0.00,VWS V14.01,2013-08-23 05:20:00,
2013-08-23 01:25:00,71.4,68.6,30.08,North,5,0.0,0.0,91,0.00,,---,0.00,VWS V14.01,2013-08-23 05:25:00,
2013-08-23 01:30:00,71.1,68.3,30.07,North,5,0.0,0.0,91,0.00,,---,0.00,VWS V14.01,2013-08-23 05:30:00,
2013-08-23 01:36:00,70.7,68.3,30.07,North,5,0.0,0.0,92,0.00,,---,0.00,VWS V14.01,2013-08-23 05:36:00,
2013-08-23 01:41:00,70.4,68.0,30.07,North,5,0.0,0.0,92,0.00,,---,0.00,VWS V14.01,2013-08-23 05:41:00,
2013-08-23 01:46:00,70.2,68.1,30.06,North,5,0.0,0.0,93,0.00,,---,0.00,VWS V14.01,2013-08-23 05:46:00,
2013-08-23 01:51:00,70.0,67.9,30.06,North,5,0.0,0.0,93,0.00,,---,0.00,VWS V14.01,2013-08-23 05:51:00,
2013-08-23 01:56:00,69.8,67.7,30.06,North,5,0.0,0.0,93,0.00,,---,0.00,VWS V14.01,2013-08-23 05:56:00,
2013-08-23 02:01:00,69.6,67.5,30.06,North,5,0.0,0.0,93,0.00,,---,0.00,VWS V14.01,2013-08-23 06:01:00,
2013-08-23 02:06:00,69.3,67.2,30.05,North,5,0.0,1.0,93,0.00,,---,0.00,VWS V14.01,2013-08-23 06:06:00,
2013-08-23 02:11:00,69.2,67.1,30.05,North,5,0.0,1.0,93,0.00,,---,0.00,VWS V14.01,2013-08-23 06:11:00,
2013-08-23 02:16:00,69.2,67.4,30.05,North,5,0.0,0.0,94,0.00,,---,0.00,VWS V14.01,2013-08-23 06:16:00,
2013-08-23 02:21:00,69.3,67.5,30.04,North,5,0.0,0.0,94,0.00,,---,0.00,VWS V14.01,2013-08-23 06:21:00,
2013-08-23 02:26:00,69.4,67.6,30.04,North,5,0.0,1.0,94,0.00,,---,0.00,VWS V14.01,2013-08-23 06:26:00,
2013-08-23 02:31:00,69.4,67.6,30.04,North,5,0.0,0.0,94,0.00,,---,0.00,VWS V14.01,2013-08-23 06:31:00,
2013-08-23 02:36:00,69.6,67.5,30.04,North,5,0.0,1.0,93,0.00,,---,0.00,VWS V14.01,2013-08-23 06:36:00,
2013-08-23 02:41:00,69.5,67.4,30.03,North,5,0.0,1.0,93,0.00,,---,0.00,VWS V14.01,2013-08-23 06:41:00,
2013-08-23 02:46:00,69.3,67.2,30.03,North,5,0.0,1.0,93,0.00,,---,0.00,VWS V14.01,2013-08-23 06:46:00,
2013-08-23 02:51:00,69.1,67.0,30.03,North,5,0.0,1.0,93,0.00,,---,0.00,VWS V14.01,2013-08-23 06:51:00,
2013-08-23 02:56:00,69.2,67.1,30.03,North,5,0.0,1.0,93,0.00,,---,0.00,VWS V14.01,2013-08-23 06:56:00,
2013-08-23 03:01:00,69.0,66.9,30.03,North,5,0.0,0.0,93,0.00,,---,0.00,VWS V14.01,2013-08-23 07:01:00,
2013-08-23 03:06:00,69.1,67.3,30.03,North,5,0.0,0.0,94,0.00,,---,0.00,VWS V14.01,2013-08-23 07:06:00,
2013-08-23 03:11:00,69.2,67.1,30.03,North,5,0.0,0.0,93,0.00,,---,0.00,VWS V14.01,2013-08-23 07:11:00,
2013-08-23 03:16:00,69.2,67.1,30.03,North,5,0.0,1.0,93,0.00,,---,0.00,VWS V14.01,2013-08-23 07:16:00,
2013-08-23 03:21:00,69.2,67.1,30.03,SSW,208,0.0,3.0,93,0.00,,---,0.00,VWS V14.01,2013-08-23 07:21:00,
2013-08-23 03:26:00,69.2,67.1,30.03,SSW,208,1.0,3.0,93,0.00,,---,0.00,VWS V14.01,2013-08-23 07:26:00,
2013-08-23 03:31:00,69.3,67.2,30.03,SSW,206,0.0,0.0,93,0.00,,---,0.00,VWS V14.01,2013-08-23 07:31:00,
2013-08-23 03:36:00,69.3,67.2,30.02,SSW,212,0.0,3.0,93,0.00,,---,0.00,VWS V14.01,2013-08-23 07:36:00,
2013-08-23 03:42:00,69.3,67.2,30.02,SSW,212,0.0,3.0,93,0.00,,---,0.00,VWS V14.01,2013-08-23 07:42:00,
2013-08-23 03:47:00,69.2,67.1,30.02,SSW,212,0.0,0.0,93,0.00,,---,0.00,VWS V14.01,2013-08-23 07:47:00,
2013-08-23 03:52:00,69.2,67.1,30.02,SSW,212,0.0,0.0,93,0.00,,---,0.00,VWS V14.01,2013-08-23 07:52:00,
2013-08-23 03:57:00,69.0,66.9,30.02,SSW,212,0.0,0.0,93,0.00,,---,0.00,VWS V14.01,2013-08-23 07:57:00,
2013-08-23 04:02:00,68.8,66.7,30.02,SSW,212,0.0,0.0,93,0.00,,---,0.00,VWS V14.01,2013-08-23 08:02:00,
2013-08-23 04:07:00,68.8,67.0,30.02,SSW,212,0.0,0.0,94,0.00,,---,0.00,VWS V14.01,2013-08-23 08:07:00,
2013-08-23 04:12:00,68.8,67.0,30.02,SSW,212,0.0,0.0,94,0.00,,---,0.00,VWS V14.01,2013-08-23 08:12:00,
2013-08-23 04:17:00,68.8,67.0,30.02,SSW,212,0.0,0.0,94,0.00,,---,0.00,VWS V14.01,2013-08-23 08:17:00,
2013-08-23 04:22:00,68.8,67.0,30.02,SSW,212,0.0,0.0,94,0.00,,---,0.00,VWS V14.01,2013-08-23 08:22:00,
2013-08-23 04:27:00,69.0,67.2,30.02,SSW,212,0.0,1.0,94,0.00,,---,0.00,VWS V14.01,2013-08-23 08:27:00,
2013-08-23 04:32:00,69.1,67.3,30.02,SSW,212,0.0,1.0,94,0.00,,---,0.00,VWS V14.01,2013-08-23 08:32:00,
2013-08-23 04:37:00,69.2,67.4,30.02,SSW,212,0.0,1.0,94,0.00,,---,0.00,VWS V14.01,2013-08-23 08:37:00,
2013-08-23 04:42:00,69.2,67.4,30.02,SSW,212,0.0,1.0,94,0.00,,---,0.00,VWS V14.01,2013-08-23 08:42:00,
2013-08-23 04:47:00,69.3,67.8,30.02,SSW,212,0.0,2.0,95,0.00,,---,0.00,VWS V14.01,2013-08-23 08:47:00,
2013-08-23 04:52:00,69.3,67.5,30.02,SSW,212,0.0,2.0,94,0.00,,---,0.00,VWS V14.01,2013-08-23 08:52:00,
2013-08-23 04:57:00,69.3,67.8,30.02,SSW,212,0.0,2.0,95,0.00,,---,0.00,VWS V14.01,2013-08-23 08:57:00,
2013-08-23 05:02:00,69.3,67.8,30.03,SSW,211,0.0,1.0,95,0.00,,---,0.00,VWS V14.01,2013-08-23 09:02:00,
2013-08-23 05:07:00,69.3,67.8,30.03,SSW,211,0.0,2.0,95,0.00,,---,0.00,VWS V14.01,2013-08-23 09:07:00,
2013-08-23 05:12:00,69.3,67.8,30.03,SSW,211,1.0,2.0,95,0.00,,---,0.00,VWS V14.01,2013-08-23 09:12:00,
2013-08-23 05:17:00,69.2,67.7,30.03,SSW,211,0.0,0.0,95,0.00,,---,0.00,VWS V14.01,2013-08-23 09:17:00,
2013-08-23 05:22:00,69.1,67.6,30.03,WSW,248,0.0,2.0,95,0.00,,---,0.00,VWS V14.01,2013-08-23 09:22:00,
2013-08-23 05:27:00,69.2,67.7,30.03,SW,215,0.0,2.0,95,0.00,,---,0.00,VWS V14.01,2013-08-23 09:27:00,
2013-08-23 05:32:00,69.1,67.6,30.04,SW,221,0.0,2.0,95,0.00,,---,0.00,VWS V14.01,2013-08-23 09:32:00,
2013-08-23 05:37:00,69.1,67.6,30.04,SW,226,0.0,2.0,95,0.00,,---,0.00,VWS V14.01,2013-08-23 09:37:00,
2013-08-23 05:42:00,69.0,67.5,30.04,SW,232,0.0,3.0,95,0.00,,---,0.00,VWS V14.01,2013-08-23 09:42:00,
2013-08-23 05:47:00,69.0,67.5,30.04,SSW,209,0.0,1.0,95,0.00,,---,0.00,VWS V14.01,2013-08-23 09:47:00,
2013-08-23 05:53:00,68.9,67.4,30.04,WSW,247,0.0,1.0,95,0.00,,---,0.00,VWS V14.01,2013-08-23 09:53:00,
2013-08-23 05:58:00,68.9,67.4,30.04,WSW,242,0.0,3.0,95,0.00,,---,0.00,VWS V14.01,2013-08-23 09:58:00,
2013-08-23 06:03:00,68.9,67.4,30.04,WSW,244,0.0,1.0,95,0.00,,---,0.00,VWS V14.01,2013-08-23 10:03:00,
2013-08-23 06:08:00,68.8,67.6,30.04,WSW,244,0.0,1.0,96,0.00,,---,0.00,VWS V14.01,2013-08-23 10:08:00,
2013-08-23 06:13:00,68.8,67.3,30.04,WSW,244,0.0,1.0,95,0.00,,---,0.00,VWS V14.01,2013-08-23 10:13:00,
2013-08-23 06:18:00,68.8,67.3,30.04,WSW,250,2.0,3.0,95,0.00,,---,0.00,VWS V14.01,2013-08-23 10:18:00,
2013-08-23 06:23:00,68.9,67.7,30.05,WSW,248,0.0,3.0,96,0.00,,---,0.00,VWS V14.01,2013-08-23 10:23:00,
2013-08-23 06:28:00,68.9,67.7,30.05,WSW,248,0.0,3.0,96,0.00,,---,0.00,VWS V14.01,2013-08-23 10:28:00,
2013-08-23 06:33:00,68.9,67.7,30.05,WSW,248,0.0,1.0,96,0.00,,---,0.00,VWS V14.01,2013-08-23 10:33:00,
2013-08-23 06:38:00,69.0,67.8,30.05,WSW,254,0.0,2.0,96,0.00,,---,0.00,VWS V14.01,2013-08-23 10:38:00,
2013-08-23 06:43:00,69.0,67.8,30.05,WSW,254,0.0,2.0,96,0.00,,---,0.00,VWS V14.01,2013-08-23 10:43:00,
2013-08-23 06:48:00,69.0,67.8,30.05,WSW,254,0.0,1.0,96,0.00,,---,0.00,VWS V14.01,2013-08-23 10:48:00,
2013-08-23 06:53:00,69.0,67.8,30.06,WNW,282,0.0,3.0,96,0.00,,---,0.00,VWS V14.01,2013-08-23 10:53:00,
2013-08-23 06:58:00,69.0,67.8,30.06,WNW,282,0.0,3.0,96,0.00,,---,0.00,VWS V14.01,2013-08-23 10:58:00,
2013-08-23 07:03:00,69.0,67.8,30.06,WNW,282,0.0,0.0,96,0.00,,---,0.00,VWS V14.01,2013-08-23 11:03:00,
2013-08-23 07:08:00,68.9,67.7,30.06,WNW,282,0.0,2.0,96,0.00,,---,0.00,VWS V14.01,2013-08-23 11:08:00,
2013-08-23 07:13:00,69.1,67.9,30.06,NW,317,0.0,3.0,96,0.00,,---,0.00,VWS V14.01,2013-08-23 11:13:00,
2013-08-23 07:18:00,69.3,68.1,30.06,NW,317,0.0,3.0,96,0.00,,---,0.00,VWS V14.01,2013-08-23 11:18:00,
2013-08-23 07:23:00,69.5,68.3,30.06,NW,317,0.0,3.0,96,0.00,,---,0.00,VWS V14.01,2013-08-23 11:23:00,
2013-08-23 07:28:00,69.7,68.5,30.06,NW,319,0.0,3.0,96,0.00,,---,0.00,VWS V14.01,2013-08-23 11:28:00,
2013-08-23 07:33:00,69.9,68.7,30.06,NW,318,0.0,2.0,96,0.00,,---,0.00,VWS V14.01,2013-08-23 11:33:00,
2013-08-23 07:38:00,70.2,69.0,30.06,NW,316,3.0,3.0,96,0.00,,---,0.00,VWS V14.01,2013-08-23 11:38:00,
2013-08-23 07:43:00,70.4,69.2,30.06,NW,317,0.0,3.0,96,0.00,,---,0.00,VWS V14.01,2013-08-23 11:43:00,
2013-08-23 07:48:00,70.4,69.2,30.06,NW,319,3.0,4.0,96,0.00,,---,0.00,VWS V14.01,2013-08-23 11:48:00,
2013-08-23 07:53:00,70.4,69.2,30.06,NW,313,0.0,4.0,96,0.00,,---,0.00,VWS V14.01,2013-08-23 11:53:00,
2013-08-23 07:59:00,70.4,69.2,30.06,NW,313,2.0,4.0,96,0.00,,---,0.00,VWS V14.01,2013-08-23 11:59:00,
2013-08-23 08:04:00,70.5,69.3,30.07,West,266,1.0,2.0,96,0.00,,---,0.00,VWS V14.01,2013-08-23 12:04:00,
2013-08-23 08:09:00,70.6,69.4,30.07,WNW,285,0.0,3.0,96,0.00,,---,0.00,VWS V14.01,2013-08-23 12:09:00,
2013-08-23 08:14:00,70.8,69.6,30.08,West,281,0.0,3.0,96,0.00,,---,0.00,VWS V14.01,2013-08-23 12:14:00,
2013-08-23 08:19:00,71.0,69.8,30.08,WSW,258,0.0,2.0,96,0.00,,---,0.00,VWS V14.01,2013-08-23 12:19:00,
2013-08-23 08:24:00,71.1,69.9,30.08,West,259,0.0,3.0,96,0.00,,---,0.00,VWS V14.01,2013-08-23 12:24:00,
2013-08-23 08:29:00,71.3,70.1,30.08,NW,318,2.0,3.0,96,0.00,,---,0.00,VWS V14.01,2013-08-23 12:29:00,
2013-08-23 08:34:00,71.5,70.3,30.08,WNW,295,0.0,3.0,96,0.00,,---,0.00,VWS V14.01,2013-08-23 12:34:00,
2013-08-23 08:39:00,71.9,70.7,30.08,WNW,303,2.0,4.0,96,0.00,,---,0.00,VWS V14.01,2013-08-23 12:39:00,
2013-08-23 08:44:00,72.4,71.2,30.08,NW,315,0.0,4.0,96,0.00,,---,0.00,VWS V14.01,2013-08-23 12:44:00,
2013-08-23 08:49:00,72.4,70.9,30.08,NNW,336,1.0,3.0,95,0.00,,---,0.00,VWS V14.01,2013-08-23 12:49:00,
2013-08-23 08:54:00,72.8,71.3,30.08,NW,316,0.0,3.0,95,0.00,,---,0.00,VWS V14.01,2013-08-23 12:54:00,
2013-08-23 08:59:00,73.3,71.5,30.08,NW,314,3.0,3.0,94,0.00,,---,0.00,VWS V14.01,2013-08-23 12:59:00,
2013-08-23 09:04:00,73.6,71.5,30.08,NNW,327,4.0,4.0,93,0.00,,---,0.00,VWS V14.01,2013-08-23 13:04:00,
2013-08-23 09:09:00,74.2,72.1,30.08,NNW,342,2.0,4.0,93,0.00,,---,0.00,VWS V14.01,2013-08-23 13:09:00,
2013-08-23 09:14:00,75.1,72.6,30.08,NW,325,0.0,4.0,92,0.00,,---,0.00,VWS V14.01,2013-08-23 13:14:00,
2013-08-23 09:19:00,76.0,72.9,30.08,NW,313,1.0,2.0,90,0.00,,---,0.00,VWS V14.01,2013-08-23 13:19:00,
2013-08-23 09:24:00,76.3,73.2,30.08,NW,313,0.0,2.0,90,0.00,,---,0.00,VWS V14.01,2013-08-23 13:24:00,
2013-08-23 09:29:00,76.4,72.9,30.08,NW,321,0.0,3.0,89,0.00,,---,0.00,VWS V14.01,2013-08-23 13:29:00,
2013-08-23 09:34:00,76.9,73.1,30.08,WNW,297,0.0,3.0,88,0.00,,---,0.00,VWS V14.01,2013-08-23 13:34:00,
2013-08-23 09:39:00,77.7,73.9,30.08,NW,311,0.0,4.0,88,0.00,,---,0.00,VWS V14.01,2013-08-23 13:39:00,
2013-08-23 09:44:00,78.5,74.3,30.08,WNW,302,0.0,4.0,87,0.00,,---,0.00,VWS V14.01,2013-08-23 13:44:00,
2013-08-23 09:50:00,79.6,74.3,30.08,NW,319,0.0,3.0,84,0.00,,---,0.00,VWS V14.01,2013-08-23 13:50:00,
2013-08-23 09:55:00,80.0,73.7,30.08,NNW,344,1.0,6.0,81,0.00,,---,0.00,VWS V14.01,2013-08-23 13:55:00,
2013-08-23 10:00:00,80.2,73.8,30.08,NW,307,2.0,6.0,81,0.00,,---,0.00,VWS V14.01,2013-08-23 14:00:00,
2013-08-23 10:05:00,80.5,74.1,30.08,NW,312,0.0,3.0,81,0.00,,---,0.00,VWS V14.01,2013-08-23 14:05:00,
2013-08-23 10:10:00,81.1,75.1,30.08,NW,322,0.0,3.0,82,0.00,,---,0.00,VWS V14.01,2013-08-23 14:10:00,
2013-08-23 10:15:00,81.7,74.6,30.08,NNW,333,0.0,4.0,79,0.00,,---,0.00,VWS V14.01,2013-08-23 14:15:00,
2013-08-23 10:20:00,81.6,74.5,30.08,West,262,0.0,2.0,79,0.00,,---,0.00,VWS V14.01,2013-08-23 14:20:00,
2013-08-23 10:25:00,81.6,72.9,30.08,WSW,247,2.0,3.0,75,0.00,,---,0.00,VWS V14.01,2013-08-23 14:25:00,
2013-08-23 10:30:00,82.1,74.2,30.08,North,355,2.0,5.0,77,0.00,,---,0.00,VWS V14.01,2013-08-23 14:30:00,
2013-08-23 10:35:00,82.1,73.0,30.09,West,279,0.0,2.0,74,0.00,,---,0.00,VWS V14.01,2013-08-23 14:35:00,
2013-08-23 10:40:00,81.0,73.1,30.08,SE,136,0.0,2.0,77,0.00,,---,0.00,VWS V14.01,2013-08-23 14:40:00,
2013-08-23 10:45:00,81.8,73.5,30.09,South,186,0.0,0.0,76,0.00,,---,0.00,VWS V14.01,2013-08-23 14:45:00,
2013-08-23 10:50:00,82.5,73.8,30.08,South,188,0.0,1.0,75,0.00,,---,0.00,VWS V14.01,2013-08-23 14:50:00,
2013-08-23 10:56:00,84.2,75.4,30.09,NNW,346,2.0,4.0,75,0.00,,---,0.00,VWS V14.01,2013-08-23 14:56:00,
2013-08-23 11:01:00,84.5,74.9,30.09,NW,315,0.0,0.0,73,0.00,,---,0.00,VWS V14.01,2013-08-23 15:01:00,
2013-08-23 11:06:00,85.1,75.1,30.08,WNW,295,0.0,1.0,72,0.00,,---,0.00,VWS V14.01,2013-08-23 15:06:00,
2013-08-23 11:11:00,84.4,72.7,30.08,WSW,247,1.0,2.0,68,0.00,,---,0.00,VWS V14.01,2013-08-23 15:11:00,
2013-08-23 11:16:00,84.5,74.9,30.08,WSW,247,0.0,0.0,73,0.00,,---,0.00,VWS V14.01,2013-08-23 15:16:00,
2013-08-23 11:21:00,85.7,76.1,30.08,West,262,1.0,1.0,73,0.00,,---,0.00,VWS V14.01,2013-08-23 15:21:00,
2013-08-23 11:26:00,85.0,74.6,30.08,WSW,254,0.0,2.0,71,0.00,,---,0.00,VWS V14.01,2013-08-23 15:26:00,
2013-08-23 11:31:00,85.3,73.6,30.08,WSW,248,1.0,1.0,68,0.00,,---,0.00,VWS V14.01,2013-08-23 15:31:00,
2013-08-23 11:36:00,86.4,75.5,30.08,WNW,282,1.0,2.0,70,0.00,,---,0.00,VWS V14.01,2013-08-23 15:36:00,
2013-08-23 11:41:00,87.2,74.9,30.08,NNW,338,1.0,4.0,67,0.00,,---,0.00,VWS V14.01,2013-08-23 15:41:00,
2013-08-23 11:46:00,87.0,73.8,30.08,NNW,331,0.0,1.0,65,0.00,,---,0.00,VWS V14.01,2013-08-23 15:46:00,
2013-08-23 11:51:00,87.4,75.1,30.08,NNW,331,0.0,2.0,67,0.00,,---,0.00,VWS V14.01,2013-08-23 15:51:00,
2013-08-23 11:56:00,87.2,72.6,30.07,NNE,22,1.0,3.0,62,0.00,,---,0.00,VWS V14.01,2013-08-23 15:56:00,
2013-08-23 12:01:00,85.8,72.7,30.07,SSW,205,0.0,1.0,65,0.00,,---,0.00,VWS V14.01,2013-08-23 16:01:00,
2013-08-23 12:06:00,86.5,72.9,30.07,SW,233,1.0,2.0,64,0.00,,---,0.00,VWS V14.01,2013-08-23 16:06:00,
2013-08-23 12:11:00,87.2,73.1,30.07,West,276,0.0,2.0,63,0.00,,---,0.00,VWS V14.01,2013-08-23 16:11:00,
2013-08-23 12:16:00,87.9,72.3,30.07,NW,310,2.0,7.0,60,0.00,,---,0.00,VWS V14.01,2013-08-23 16:16:00,
2013-08-23 12:21:00,88.3,72.7,30.07,North,355,1.0,7.0,60,0.00,,---,0.00,VWS V14.01,2013-08-23 16:21:00,
2013-08-23 12:26:00,87.0,73.8,30.07,NW,317,0.0,7.0,65,0.00,,---,0.00,VWS V14.01,2013-08-23 16:26:00,
2013-08-23 12:31:00,87.9,72.8,30.06,NNW,334,1.0,4.0,61,0.00,,---,0.00,VWS V14.01,2013-08-23 16:31:00,
2013-08-23 12:37:00,88.0,71.4,30.06,SSW,213,0.0,4.0,58,0.00,,---,0.00,VWS V14.01,2013-08-23 16:37:00,
2013-08-23 12:42:00,87.7,72.6,30.06,NNE,23,4.0,4.0,61,0.00,,---,0.00,VWS V14.01,2013-08-23 16:42:00,
2013-08-23 12:47:00,87.7,72.6,30.06,North,360,1.0,2.0,61,0.00,,---,0.00,VWS V14.01,2013-08-23 16:47:00,
2013-08-23 12:52:00,87.4,72.3,30.06,ENE,74,1.0,2.0,61,0.00,,---,0.00,VWS V14.01,2013-08-23 16:52:00,
2013-08-23 12:57:00,88.1,75.3,30.06,North,355,0.0,2.0,66,0.00,,---,0.00,VWS V14.01,2013-08-23 16:57:00,
2013-08-23 13:02:00,89.2,74.5,30.05,NNW,329,2.0,4.0,62,0.00,,---,0.00,VWS V14.01,2013-08-23 17:02:00,
2013-08-23 13:07:00,89.4,73.2,30.05,North,360,6.0,6.0,59,0.00,,---,0.00,VWS V14.01,2013-08-23 17:07:00,
2013-08-23 13:12:00,89.4,74.7,30.05,NW,318,3.0,6.0,62,0.00,,---,0.00,VWS V14.01,2013-08-23 17:12:00,
2013-08-23 13:17:00,89.7,73.0,30.05,NNW,333,1.0,6.0,58,0.00,,---,0.00,VWS V14.01,2013-08-23 17:17:00,
2013-08-23 13:22:00,89.2,72.0,30.05,North,351,1.0,6.0,57,0.00,,---,0.00,VWS V14.01,2013-08-23 17:22:00,
2013-08-23 13:27:00,88.2,71.6,30.04,NNE,14,0.0,7.0,58,0.00,,---,0.00,VWS V14.01,2013-08-23 17:27:00,
2013-08-23 13:33:00,87.9,71.8,30.04,NW,309,0.0,3.0,59,0.00,,---,0.00,VWS V14.01,2013-08-23 17:33:00,
2013-08-23 13:38:00,89.1,72.9,30.04,NNE,13,1.0,3.0,59,0.00,,---,0.00,VWS V14.01,2013-08-23 17:38:00,
2013-08-23 13:43:00,87.7,71.6,30.04,NNW,332,0.0,3.0,59,0.00,,---,0.00,VWS V14.01,2013-08-23 17:43:00,
2013-08-23 13:48:00,86.9,71.8,30.04,NNW,340,1.0,5.0,61,0.00,,---,0.00,VWS V14.01,2013-08-23 17:48:00,
2013-08-23 13:53:00,86.4,70.9,30.04,NNE,22,0.0,5.0,60,0.00,,---,0.00,VWS V14.01,2013-08-23 17:53:00,
2013-08-23 13:58:00,87.5,74.3,30.03,North,5,0.0,5.0,65,0.00,,---,0.00,VWS V14.01,2013-08-23 17:58:00,
2013-08-23 14:03:00,89.0,73.3,30.03,North,355,2.0,4.0,60,0.00,,---,0.00,VWS V14.01,2013-08-23 18:03:00,
2013-08-23 14:08:00,88.6,72.9,30.03,NE,36,1.0,4.0,60,0.00,,---,0.00,VWS V14.01,2013-08-23 18:08:00,
2013-08-23 14:13:00,87.4,69.8,30.03,South,188,2.0,4.0,56,0.00,,---,0.00,VWS V14.01,2013-08-23 18:13:00,
2013-08-23 14:19:00,87.4,69.8,30.02,SSE,147,1.0,2.0,56,0.00,,---,0.00,VWS V14.01,2013-08-23 18:19:00,
2013-08-23 14:24:00,87.9,70.8,30.03,SE,130,1.0,2.0,57,0.00,,---,0.00,VWS V14.01,2013-08-23 18:24:00,
2013-08-23 14:29:00,88.2,69.5,30.02,NE,45,1.0,5.0,54,0.00,,---,0.00,VWS V14.01,2013-08-23 18:29:00,
2013-08-23 14:34:00,87.8,72.7,30.02,NNW,327,3.0,4.0,61,0.00,,---,0.00,VWS V14.01,2013-08-23 18:34:00,
2013-08-23 14:39:00,87.0,70.9,30.03,NNW,343,1.0,4.0,59,0.00,,---,0.00,VWS V14.01,2013-08-23 18:39:00,
2013-08-23 14:44:00,86.5,72.4,30.03,NNW,329,0.0,4.0,63,0.00,,---,0.00,VWS V14.01,2013-08-23 18:44:00,
2013-08-23 14:49:00,86.3,71.8,30.03,NNW,334,2.0,3.0,62,0.00,,---,0.00,VWS V14.01,2013-08-23 18:49:00,
2013-08-23 14:54:00,86.2,71.2,30.03,NNW,336,1.0,5.0,61,0.00,,---,0.00,VWS V14.01,2013-08-23 18:54:00,
2013-08-23 14:59:00,86.3,71.8,30.02,NNW,328,1.0,5.0,62,0.00,,---,0.00,VWS V14.01,2013-08-23 18:59:00,
2013-08-23 15:05:00,86.4,72.3,30.02,NNW,333,0.0,5.0,63,0.00,,---,0.00,VWS V14.01,2013-08-23 19:05:00,
2013-08-23 15:10:00,86.6,72.0,30.02,NNW,328,0.0,5.0,62,0.00,,---,0.00,VWS V14.01,2013-08-23 19:10:00,
2013-08-23 15:15:00,87.3,73.6,30.02,North,5,0.0,5.0,64,0.00,,---,0.00,VWS V14.01,2013-08-23 19:15:00,
2013-08-23 15:20:00,88.3,72.2,30.01,North,355,0.0,4.0,59,0.00,,---,0.00,VWS V14.01,2013-08-23 19:20:00,
2013-08-23 15:25:00,87.7,71.1,30.01,NW,310,2.0,4.0,58,0.00,,---,0.00,VWS V14.01,2013-08-23 19:25:00,
2013-08-23 15:30:00,87.0,71.9,30.01,NNE,18,0.0,1.0,61,0.00,,---,0.00,VWS V14.01,2013-08-23 19:30:00,
2013-08-23 15:35:00,88.1,72.0,30.01,NW,325,2.0,3.0,59,0.00,,---,0.00,VWS V14.01,2013-08-23 19:35:00,
2013-08-23 15:40:00,88.3,71.7,30.00,North,5,2.0,4.0,58,0.00,,---,0.00,VWS V14.01,2013-08-23 19:40:00,
2013-08-23 15:45:00,88.9,72.7,30.00,NW,307,2.0,3.0,59,0.00,,---,0.00,VWS V14.01,2013-08-23 19:45:00,
2013-08-23 15:50:00,88.6,71.4,30.00,NNW,340,1.0,4.0,57,0.00,,---,0.00,VWS V14.01,2013-08-23 19:50:00,
2013-08-23 15:55:00,88.9,73.2,30.00,NW,304,0.0,5.0,60,0.00,,---,0.00,VWS V14.01,2013-08-23 19:55:00,
2013-08-23 16:00:00,88.0,70.9,30.00,NW,306,4.0,5.0,57,0.00,,---,0.00,VWS V14.01,2013-08-23 20:00:00,
2013-08-23 16:05:00,87.2,72.1,30.00,NW,312,9.0,11.0,61,0.00,,---,0.00,VWS V14.01,2013-08-23 20:05:00,
2013-08-23 16:10:00,85.1,72.0,30.00,NNW,332,5.0,11.0,65,0.00,,---,0.00,VWS V14.01,2013-08-23 20:10:00,
2013-08-23 16:16:00,84.8,72.6,30.00,NNW,341,5.0,7.0,67,0.00,,---,0.00,VWS V14.01,2013-08-23 20:16:00,
2013-08-23 16:21:00,84.6,72.4,30.00,NNW,327,3.0,10.0,67,0.00,,---,0.00,VWS V14.01,2013-08-23 20:21:00,
2013-08-23 16:26:00,84.4,72.2,30.00,NNE,26,1.0,10.0,67,0.00,,---,0.00,VWS V14.01,2013-08-23 20:26:00,
2013-08-23 16:31:00,83.4,71.7,30.00,NE,51,1.0,2.0,68,0.00,,---,0.00,VWS V14.01,2013-08-23 20:31:00,
2013-08-23 16:36:00,82.8,72.4,30.00,NNW,333,0.0,3.0,71,0.00,,---,0.00,VWS V14.01,2013-08-23 20:36:00,
2013-08-23 16:41:00,82.3,71.5,29.99,East,80,0.0,3.0,70,0.00,,---,0.00,VWS V14.01,2013-08-23 20:41:00,
2013-08-23 16:46:00,82.0,71.3,29.99,NNE,15,1.0,3.0,70,0.00,,---,0.00,VWS V14.01,2013-08-23 20:46:00,
2013-08-23 16:51:00,81.7,71.0,29.99,North,351,1.0,3.0,70,0.00,,---,0.00,VWS V14.01,2013-08-23 20:51:00,
2013-08-23 16:56:00,81.7,71.0,29.99,WNW,294,0.0,3.0,70,0.00,,---,0.00,VWS V14.01,2013-08-23 20:56:00,
2013-08-23 17:01:00,81.8,71.5,29.99,NNW,330,1.0,1.0,71,0.00,,---,0.00,VWS V14.01,2013-08-23 21:01:00,
2013-08-23 17:06:00,82.0,71.7,30.00,NNW,338,3.0,4.0,71,0.00,,---,0.00,VWS V14.01,2013-08-23 21:06:00,
2013-08-23 17:11:00,81.7,71.0,30.00,NNW,338,0.0,4.0,70,0.00,,---,0.00,VWS V14.01,2013-08-23 21:11:00,
2013-08-23 17:16:00,81.6,71.7,30.00,NNW,338,0.0,2.0,72,0.00,,---,0.00,VWS V14.01,2013-08-23 21:16:00,
2013-08-23 17:21:00,81.3,72.2,30.00,NNW,345,0.0,3.0,74,0.00,,---,0.00,VWS V14.01,2013-08-23 21:21:00,
2013-08-23 17:26:00,81.2,71.7,30.00,NNW,345,1.0,3.0,73,0.00,,---,0.00,VWS V14.01,2013-08-23 21:26:00,
2013-08-23 17:31:00,81.1,71.2,30.00,NNW,332,1.0,3.0,72,0.00,,---,0.00,VWS V14.01,2013-08-23 21:31:00,
2013-08-23 17:36:00,80.9,71.4,30.01,NNW,340,1.0,3.0,73,0.00,,---,0.00,VWS V14.01,2013-08-23 21:36:00,
2013-08-23 17:41:00,80.6,71.2,30.01,NNE,22,0.0,3.0,73,0.00,,---,0.00,VWS V14.01,2013-08-23 21:41:00,
2013-08-23 17:46:00,80.4,71.0,30.01,NNE,29,0.0,1.0,73,0.00,,---,0.00,VWS V14.01,2013-08-23 21:46:00,
2013-08-23 17:52:00,80.2,71.6,30.01,NNE,29,0.0,2.0,75,0.00,,---,0.00,VWS V14.01,2013-08-23 21:52:00,
2013-08-23 17:57:00,80.1,71.5,30.01,NNE,28,0.0,2.0,75,0.00,,---,0.00,VWS V14.01,2013-08-23 21:57:00,
2013-08-23 18:02:00,79.9,71.3,30.01,NW,325,1.0,2.0,75,0.00,,---,0.00,VWS V14.01,2013-08-23 22:02:00,
2013-08-23 18:07:00,79.6,70.6,30.01,NNW,329,0.0,4.0,74,0.00,,---,0.00,VWS V14.01,2013-08-23 22:07:00,
2013-08-23 18:12:00,79.4,71.2,30.01,NNW,331,0.0,4.0,76,0.00,,---,0.00,VWS V14.01,2013-08-23 22:12:00,
2013-08-23 18:17:00,79.0,70.8,30.01,NNW,333,1.0,3.0,76,0.00,,---,0.00,VWS V14.01,2013-08-23 22:17:00,
2013-08-23 18:22:00,78.8,71.0,30.01,NNW,347,2.0,3.0,77,0.00,,---,0.00,VWS V14.01,2013-08-23 22:22:00,
2013-08-23 18:27:00,78.5,71.1,30.01,NNW,331,0.0,3.0,78,0.00,,---,0.00,VWS V14.01,2013-08-23 22:27:00,
2013-08-23 18:32:00,78.3,70.9,30.01,NNW,331,0.0,0.0,78,0.00,,---,0.00,VWS V14.01,2013-08-23 22:32:00,
2013-08-23 18:37:00,78.2,71.2,30.01,NNW,331,0.0,1.0,79,0.00,,---,0.00,VWS V14.01,2013-08-23 22:37:00,
2013-08-23 18:42:00,78.1,71.4,30.01,NNW,331,0.0,1.0,80,0.00,,---,0.00,VWS V14.01,2013-08-23 22:42:00,
2013-08-23 18:47:00,78.1,71.4,30.01,NNW,331,1.0,1.0,80,0.00,,---,0.00,VWS V14.01,2013-08-23 22:47:00,
2013-08-23 18:52:00,78.0,71.3,30.01,NNW,331,1.0,1.0,80,0.00,,---,0.00,VWS V14.01,2013-08-23 22:52:00,
2013-08-23 18:57:00,77.8,71.1,30.01,NNW,331,0.0,2.0,80,0.00,,---,0.00,VWS V14.01,2013-08-23 22:57:00,
2013-08-23 19:02:00,77.8,71.1,30.00,NNW,331,0.0,0.0,80,0.00,,---,0.00,VWS V14.01,2013-08-23 23:02:00,
2013-08-23 19:07:00,77.6,71.3,30.00,NNW,331,0.0,1.0,81,0.00,,---,0.00,VWS V14.01,2013-08-23 23:07:00,
2013-08-23 19:12:00,77.5,70.8,30.00,NNW,331,0.0,2.0,80,0.00,,---,0.00,VWS V14.01,2013-08-23 23:12:00,
2013-08-23 19:17:00,77.6,70.9,30.01,NNW,331,0.0,1.0,80,0.00,,---,0.00,VWS V14.01,2013-08-23 23:17:00,
2013-08-23 19:22:00,77.5,71.2,30.01,NNW,331,1.0,2.0,81,0.00,,---,0.00,VWS V14.01,2013-08-23 23:22:00,
2013-08-23 19:27:00,77.2,70.9,30.01,NNW,331,0.0,2.0,81,0.00,,---,0.00,VWS V14.01,2013-08-23 23:27:00,
2013-08-23 19:32:00,77.0,71.1,30.01,NNW,331,0.0,1.0,82,0.00,,---,0.00,VWS V14.01,2013-08-23 23:32:00,
2013-08-23 19:37:00,76.9,71.0,30.02,NNW,331,0.0,1.0,82,0.00,,---,0.00,VWS V14.01,2013-08-23 23:37:00,
2013-08-23 19:42:00,76.8,71.2,30.02,NNW,331,0.0,1.0,83,0.00,,---,0.00,VWS V14.01,2013-08-23 23:42:00,
2013-08-23 19:47:00,76.6,71.1,30.03,NNW,331,0.0,1.0,83,0.00,,---,0.00,VWS V14.01,2013-08-23 23:47:00,
2013-08-23 19:52:00,76.5,71.0,30.03,NNW,331,0.0,1.0,83,0.00,,---,0.00,VWS V14.01,2013-08-23 23:52:00,
2013-08-23 19:57:00,76.4,70.9,30.03,NNW,331,0.0,1.0,83,0.00,,---,0.00,VWS V14.01,2013-08-23 23:57:00,
2013-08-23 20:02:00,76.3,71.1,30.04,NNW,331,0.0,0.0,84,0.00,,---,0.00,VWS V14.01,2013-08-24 00:02:00,
2013-08-23 20:08:00,76.4,70.9,30.04,NNW,331,0.0,0.0,83,0.00,,---,0.00,VWS V14.01,2013-08-24 00:08:00,
2013-08-23 20:13:00,76.5,70.6,30.04,NNW,331,0.0,0.0,82,0.00,,---,0.00,VWS V14.01,2013-08-24 00:13:00,
2013-08-23 20:18:00,76.4,71.2,30.04,NNW,331,0.0,0.0,84,0.00,,---,0.00,VWS V14.01,2013-08-24 00:18:00,
2013-08-23 20:23:00,76.1,70.9,30.05,NNW,331,0.0,0.0,84,0.00,,---,0.00,VWS V14.01,2013-08-24 00:23:00,
2013-08-23 20:28:00,75.7,70.9,30.05,NNW,331,0.0,0.0,85,0.00,,---,0.00,VWS V14.01,2013-08-24 00:28:00,
2013-08-23 20:33:00,75.4,70.6,30.05,NNW,331,0.0,0.0,85,0.00,,---,0.00,VWS V14.01,2013-08-24 00:33:00,
2013-08-23 20:38:00,75.2,70.4,30.05,NNW,331,0.0,0.0,85,0.00,,---,0.00,VWS V14.01,2013-08-24 00:38:00,
2013-08-23 20:43:00,75.3,70.1,30.05,NNW,331,0.0,2.0,84,0.00,,---,0.00,VWS V14.01,2013-08-24 00:43:00,
2013-08-23 20:48:00,75.6,70.4,30.05,NNW,331,0.0,1.0,84,0.00,,---,0.00,VWS V14.01,2013-08-24 00:48:00,
2013-08-23 20:53:00,75.4,70.2,30.05,NNW,331,0.0,1.0,84,0.00,,---,0.00,VWS V14.01,2013-08-24 00:53:00,
2013-08-23 20:58:00,74.9,70.1,30.05,NNW,331,0.0,1.0,85,0.00,,---,0.00,VWS V14.01,2013-08-24 00:58:00,
2013-08-23 21:03:00,74.6,70.1,30.05,NNW,331,0.0,0.0,86,0.00,,---,0.00,VWS V14.01,2013-08-24 01:03:00,
2013-08-23 21:08:00,74.2,70.1,30.05,NNW,331,0.0,0.0,87,0.00,,---,0.00,VWS V14.01,2013-08-24 01:08:00,
2013-08-23 21:13:00,73.9,70.1,30.05,NNW,331,0.0,0.0,88,0.00,,---,0.00,VWS V14.01,2013-08-24 01:13:00,
2013-08-23 21:18:00,73.7,69.9,30.06,NNW,331,0.0,0.0,88,0.00,,---,0.00,VWS V14.01,2013-08-24 01:18:00,
2013-08-23 21:23:00,73.6,70.2,30.06,NNW,331,0.0,0.0,89,0.00,,---,0.00,VWS V14.01,2013-08-24 01:23:00,
2013-08-23 21:28:00,73.4,70.0,30.06,NNW,331,0.0,0.0,89,0.00,,---,0.00,VWS V14.01,2013-08-24 01:28:00,
2013-08-23 21:33:00,73.1,69.7,30.06,NNW,331,0.0,0.0,89,0.00,,---,0.00,VWS V14.01,2013-08-24 01:33:00,
2013-08-23 21:38:00,73.0,69.6,30.07,NNW,331,0.0,0.0,89,0.00,,---,0.00,VWS V14.01,2013-08-24 01:38:00,
2013-08-23 21:43:00,73.1,69.7,30.07,NNW,331,0.0,0.0,89,0.00,,---,0.00,VWS V14.01,2013-08-24 01:43:00,
2013-08-23 21:48:00,73.0,69.6,30.07,NNW,331,0.0,0.0,89,0.00,,---,0.00,VWS V14.01,2013-08-24 01:48:00,
2013-08-23 21:53:00,72.6,69.5,30.07,NNW,331,0.0,0.0,90,0.00,,---,0.00,VWS V14.01,2013-08-24 01:53:00,
2013-08-23 21:58:00,72.4,69.3,30.07,NNW,331,0.0,0.0,90,0.00,,---,0.00,VWS V14.01,2013-08-24 01:58:00,
2013-08-23 22:03:00,72.1,69.0,30.08,NNW,331,0.0,0.0,90,0.00,,---,0.00,VWS V14.01,2013-08-24 02:03:00,
2013-08-23 22:08:00,72.0,69.2,30.08,NNW,331,0.0,1.0,91,0.00,,---,0.00,VWS V14.01,2013-08-24 02:08:00,
2013-08-23 22:13:00,72.1,69.0,30.07,NNW,331,0.0,1.0,90,0.00,,---,0.00,VWS V14.01,2013-08-24 02:13:00,
2013-08-23 22:19:00,72.2,68.8,30.07,NNW,338,0.0,2.0,89,0.00,,---,0.00,VWS V14.01,2013-08-24 02:19:00,
2013-08-23 22:24:00,72.3,68.9,30.07,NNW,338,0.0,2.0,89,0.00,,---,0.00,VWS V14.01,2013-08-24 02:24:00,
2013-08-23 22:29:00,72.2,68.8,30.07,NNW,338,0.0,2.0,89,0.00,,---,0.00,VWS V14.01,2013-08-24 02:29:00,
2013-08-23 22:34:00,71.9,68.8,30.07,NNW,338,0.0,0.0,90,0.00,,---,0.00,VWS V14.01,2013-08-24 02:34:00,
2013-08-23 22:39:00,71.7,68.6,30.07,NNW,338,0.0,0.0,90,0.00,,---,0.00,VWS V14.01,2013-08-24 02:39:00,
2013-08-23 22:44:00,71.5,68.4,30.07,NNW,338,0.0,1.0,90,0.00,,---,0.00,VWS V14.01,2013-08-24 02:44:00,
2013-08-23 22:49:00,71.4,68.3,30.07,NNW,339,0.0,2.0,90,0.00,,---,0.00,VWS V14.01,2013-08-24 02:49:00,
2013-08-23 22:54:00,71.5,68.4,30.07,NNW,338,0.0,2.0,90,0.00,,---,0.00,VWS V14.01,2013-08-24 02:54:00,
2013-08-23 22:59:00,71.6,68.5,30.08,North,355,1.0,3.0,90,0.00,,---,0.00,VWS V14.01,2013-08-24 02:59:00,
2013-08-23 23:04:00,71.7,68.3,30.08,North,355,1.0,2.0,89,0.00,,---,0.00,VWS V14.01,2013-08-24 03:04:00,
2013-08-23 23:09:00,71.9,68.5,30.08,NNW,327,3.0,3.0,89,0.00,,---,0.00,VWS V14.01,2013-08-24 03:09:00,
2013-08-23 23:14:00,72.0,68.6,30.08,North,11,0.0,3.0,89,0.00,,---,0.00,VWS V14.01,2013-08-24 03:14:00,
2013-08-23 23:19:00,72.1,68.7,30.09,NNW,330,0.0,7.0,89,0.00,,---,0.00,VWS V14.01,2013-08-24 03:19:00,
2013-08-23 23:24:00,72.1,68.7,30.09,ENE,71,0.0,7.0,89,0.00,,---,0.00,VWS V14.01,2013-08-24 03:24:00,
2013-08-23 23:29:00,72.1,68.7,30.09,North,355,3.0,7.0,89,0.00,,---,0.00,VWS V14.01,2013-08-24 03:29:00,
2013-08-23 23:34:00,71.9,68.5,30.09,NE,52,1.0,4.0,89,0.00,,---,0.00,VWS V14.01,2013-08-24 03:34:00,
2013-08-23 23:39:00,71.8,68.7,30.10,NNE,32,1.0,4.0,90,0.00,,---,0.00,VWS V14.01,2013-08-24 03:39:00,
2013-08-23 23:44:00,71.6,68.5,30.10,North,11,0.0,5.0,90,0.00,,---,0.00,VWS V14.01,2013-08-24 03:44:00,
2013-08-23 23:49:00,71.5,68.4,30.10,North,355,0.0,6.0,90,0.00,,---,0.00,VWS V14.01,2013-08-24 03:49:00,
2013-08-23 23:54:00,71.4,68.3,30.10,NNE,32,0.0,7.0,90,0.00,,---,0.00,VWS V14.01,2013-08-24 03:54:00,
2013-08-23 23:59:00,71.3,68.2,30.10,North,5,3.0,7.0,90,0.00,,---,0.00,VWS V14.01,2013-08-24 03:59:00,